Time;durP1;ratioP1;P1;durP2;ratioP2;P2;SDS_P1;SDS_P2;PMS_P1;PMS_P2;Temp;Humidity;BMP_temperature;BMP_pressure;BME280_temperature;BME280_humidity;BME280_pressure;Samples;Min_cycle;Max_cycle;Signal;HPM_P1;HPM_P2
2022/08/22 00:01:28;;;;;;;3.13;2.05;;;;;;;23.09;76.68;98827.06;5087831;28;20028;-84
2022/08/22 00:04:13;;;;;;;1.35;1.25;;;;;;;22.99;76.64;98833.16;5103295;28;20040;-84
2022/08/22 00:07:04;;;;;;;2.05;1.67;;;;;;;22.85;76.94;98822.66;5092550;28;20031;-84
2022/08/22 00:10:07;;;;;;;4.72;3.63;;;;;;;22.68;78.31;98819.47;5111008;28;20034;-83
2022/08/22 00:12:36;;;;;;;5.32;2.40;;;;;;;22.84;77.77;98829.00;5026933;28;20042;-82
2022/08/22 00:15:37;;;;;;;1.15;1.05;;;;;;;22.72;78.10;98838.88;5027924;28;20069;-82
2022/08/22 00:18:30;;;;;;;2.67;1.48;;;;;;;22.46;78.88;98840.94;5077455;28;20047;-83
2022/08/22 00:21:04;;;;;;;1.30;1.20;;;;;;;22.35;79.82;98845.31;5095603;28;20509;-82
2022/08/22 00:24:13;;;;;;;3.13;2.83;;;;;;;22.51;78.67;98846.81;5091408;28;20028;-83
2022/08/22 00:26:54;;;;;;;1.23;0.90;;;;;;;22.41;79.67;98860.09;5051131;28;20460;-82
2022/08/22 00:29:33;;;;;;;4.63;3.72;;;;;;;22.28;78.70;98819.88;5098868;28;20066;-83
2022/08/22 00:32:14;;;;;;;1.55;1.25;;;;;;;22.57;78.22;98867.84;5110456;28;20039;-83
2022/08/22 00:34:55;;;;;;;2.30;1.95;;;;;;;22.51;78.62;98866.47;5110866;28;20035;-83
2022/08/22 00:37:34;;;;;;;3.90;2.65;;;;;;;22.42;78.35;98840.31;5103824;28;20409;-83
2022/08/22 00:40:29;;;;;;;4.40;1.85;;;;;;;22.55;78.16;98867.09;5096124;28;20043;-84
2022/08/22 00:43:35;;;;;;;2.30;1.45;;;;;;;22.54;77.55;98841.22;5090741;28;20532;-82
2022/08/22 00:46:28;;;;;;;3.35;2.40;;;;;;;22.40;77.56;98812.72;5090672;28;20058;-83
2022/08/22 00:49:27;;;;;;;2.42;1.92;;;;;;;22.71;77.83;98856.84;5089689;28;20043;-82
2022/08/22 00:52:24;;;;;;;2.70;2.45;;;;;;;22.71;77.80;98848.78;5093569;28;20776;-84
2022/08/22 00:55:21;;;;;;;4.78;3.00;;;;;;;22.51;77.86;98819.94;5107071;28;20036;-83
2022/08/22 00:58:18;;;;;;;3.47;2.55;;;;;;;22.62;78.06;98835.25;5089457;28;20115;-83
2022/08/22 01:00:52;;;;;;;2.65;2.42;;;;;;;22.61;77.75;98826.28;5089366;28;20078;-83
2022/08/22 01:03:46;;;;;;;6.00;3.03;;;;;;;22.82;77.11;98853.31;5105135;28;20031;-84
2022/08/22 01:06:18;;;;;;;3.60;1.70;;;;;;;22.73;77.64;98837.09;5109159;28;20126;-84
2022/08/22 01:09:06;;;;;;;2.22;1.58;;;;;;;22.52;77.16;98798.34;5109722;28;20082;-84
2022/08/22 01:12:02;;;;;;;5.15;3.47;;;;;;;22.63;77.49;98832.44;5089955;28;20406;-84
2022/08/22 01:14:52;;;;;;;2.70;2.42;;;;;;;22.48;77.77;98814.81;5096121;28;20054;-84
2022/08/22 01:17:43;;;;;;;3.22;2.38;;;;;;;22.57;78.12;98856.22;5109780;28;20462;-83
2022/08/22 01:20:50;;;;;;;3.40;2.22;;;;;;;22.58;78.01;98848.03;5091196;28;20036;-83
2022/08/22 01:35:44;;;;;;;1.83;1.70;;;;;;;22.61;76.95;98838.88;5086762;27;1587891;-82
2022/08/22 01:38:34;;;;;;;3.17;2.53;;;;;;;22.77;76.40;98852.84;5125272;28;20096;-82
2022/08/22 01:41:15;;;;;;;1.60;1.50;;;;;;;22.66;76.68;98853.69;5124508;28;20077;-81
2022/08/22 01:44:02;;;;;;;7.30;2.72;;;;;;;22.66;76.59;98847.44;5124953;27;20096;-82
2022/08/22 01:46:42;;;;;;;2.85;2.03;;;;;;;22.34;77.54;98832.84;5124194;27;20507;-82
2022/08/22 01:49:47;;;;;;;2.78;2.28;;;;;;;22.20;78.56;98825.00;5123724;28;20038;-82
2022/08/22 01:52:31;;;;;;;2.65;2.15;;;;;;;22.43;78.00;98847.41;5124535;27;20035;-82
2022/08/22 01:55:09;;;;;;;2.00;1.80;;;;;;;22.45;77.84;98847.31;5124497;28;20031;-82
2022/08/22 01:57:50;;;;;;;3.97;1.58;;;;;;;22.50;77.68;98851.31;5123276;28;20023;-81
2022/08/22 02:00:19;;;;;;;2.88;2.05;;;;;;;22.35;77.59;98825.66;5124631;27;20035;-82
2022/08/22 02:03:03;;;;;;;4.68;2.80;;;;;;;22.47;77.60;98853.41;5124458;27;20032;-81
2022/08/22 02:05:35;;;;;;;1.63;1.53;;;;;;;22.51;77.41;98858.41;5124139;27;20038;-82
2022/08/22 02:08:32;;;;;;;2.63;2.08;;;;;;;22.45;77.75;98860.75;5123284;27;20300;-81
2022/08/22 02:11:09;;;;;;;5.85;2.00;;;;;;;22.25;78.00;98825.47;5123707;28;20040;-81
2022/08/22 02:13:53;;;;;;;14.65;2.60;;;;;;;22.45;78.01;98872.31;5124317;27;20522;-82
2022/08/22 02:16:34;;;;;;;3.67;2.72;;;;;;;22.38;78.11;98854.13;5106760;28;20027;-82
2022/08/22 02:19:14;;;;;;;2.80;2.17;;;;;;;22.42;78.30;98860.97;5103877;28;20036;-82
2022/08/22 02:22:02;;;;;;;3.15;2.40;;;;;;;22.55;77.91;98861.72;5117331;28;20031;-82
2022/08/22 02:24:58;;;;;;;3.92;2.40;;;;;;;22.39;77.65;98835.19;5123593;27;20042;-83
2022/08/22 02:27:43;;;;;;;2.22;2.03;;;;;;;22.51;77.97;98855.72;5122346;28;20035;-82
2022/08/22 02:30:18;;;;;;;2.17;1.65;;;;;;;22.39;77.85;98847.78;5123895;27;20027;-81
2022/08/22 02:32:50;;;;;;;1.80;1.65;;;;;;;22.32;78.09;98850.06;5123955;27;20093;-81
2022/08/22 02:35:48;;;;;;;3.90;3.50;;;;;;;22.36;77.91;98862.28;5113574;27;20444;-82
2022/08/22 02:38:25;;;;;;;8.07;2.53;;;;;;;22.34;78.53;98872.31;5075063;28;20402;-82
2022/08/22 02:41:24;;;;;;;1.17;1.08;;;;;;;22.35;78.61;98863.25;5103902;28;20092;-81
2022/08/22 02:44:00;;;;;;;4.53;2.45;;;;;;;22.28;78.79;98864.69;5109127;28;20035;-82
2022/08/22 02:46:38;;;;;;;3.80;3.08;;;;;;;22.13;79.23;98853.28;5109917;28;20043;-82
2022/08/22 02:49:15;;;;;;;3.42;3.13;;;;;;;22.23;80.00;98886.53;5109730;28;20085;-82
2022/08/22 02:52:01;;;;;;;4.25;3.78;;;;;;;22.34;79.08;98881.22;5107078;28;20042;-82
2022/08/22 02:54:44;;;;;;;2.33;2.13;;;;;;;22.16;80.47;98894.19;5104548;28;20134;-81
2022/08/22 02:57:16;;;;;;;4.25;2.83;;;;;;;22.04;80.66;98868.25;5089493;28;20064;-82
2022/08/22 03:00:20;;;;;;;2.70;1.50;;;;;;;22.25;80.36;98881.03;5102330;28;20130;-82
2022/08/22 03:03:05;;;;;;;1.30;1.20;;;;;;;22.16;81.13;98887.97;5097194;28;20046;-81
2022/08/22 03:05:37;;;;;;;3.43;2.37;;;;;;;22.16;81.42;98888.81;5109964;28;20036;-82
2022/08/22 03:08:08;;;;;;;5.20;4.20;;;;;;;22.31;80.75;98902.94;5109256;28;20069;-82
2022/08/22 03:10:46;;;;;;;2.17;1.95;;;;;;;22.28;81.12;98891.56;5109458;28;20035;-81
2022/08/22 03:13:11;;;;;;;4.07;3.50;;;;;;;22.35;80.81;98904.44;5107757;28;20031;-81
2022/08/22 03:15:56;;;;;;;2.03;1.90;;;;;;;22.17;82.05;98909.31;5108879;28;20032;-82
2022/08/22 03:18:30;;;;;;;1.83;1.70;;;;;;;22.05;82.70;98904.03;5109135;28;20107;-81
2022/08/22 03:21:17;;;;;;;3.63;3.33;;;;;;;22.11;82.61;98907.09;5103089;28;20032;-81
2022/08/22 03:24:16;;;;;;;5.78;4.43;;;;;;;22.05;82.93;98904.03;5106307;28;20058;-82
2022/08/22 03:27:10;;;;;;;1.50;1.40;;;;;;;22.00;82.62;98882.91;5107155;28;20480;-81
2022/08/22 03:29:49;;;;;;;10.63;3.55;;;;;;;22.13;83.13;98901.63;5108183;28;20043;-82
2022/08/22 03:32:20;;;;;;;3.85;3.30;;;;;;;21.84;82.67;98853.63;5107561;28;20154;-80
2022/08/22 03:35:07;;;;;;;3.83;3.33;;;;;;;21.91;83.15;98897.84;5102959;28;20058;-83
2022/08/22 03:37:42;;;;;;;4.05;2.65;;;;;;;21.98;83.33;98896.44;5098406;28;20050;-81
2022/08/22 03:40:30;;;;;;;4.67;2.77;;;;;;;21.98;82.28;98899.13;5108619;28;20046;-83
2022/08/22 03:42:59;;;;;;;3.38;2.15;;;;;;;22.09;80.86;98900.13;5087184;28;20039;-84
2022/08/22 03:45:55;;;;;;;5.07;3.50;;;;;;;22.09;79.63;98903.69;5094756;28;20051;-86
2022/08/22 03:48:34;;;;;;;12.07;2.97;;;;;;;21.96;80.22;98893.00;5107665;28;20032;-85
2022/08/22 03:51:08;;;;;;;1.85;1.75;;;;;;;21.97;79.99;98899.25;5108415;28;20031;-85
2022/08/22 03:54:09;;;;;;;2.53;2.33;;;;;;;21.76;79.99;98870.31;5108466;27;20484;-83
2022/08/22 03:56:57;;;;;;;2.55;2.35;;;;;;;21.93;80.21;98900.44;5108402;28;20093;-81
2022/08/22 03:59:48;;;;;;;4.90;3.60;;;;;;;21.84;80.40;98880.47;5106935;28;20094;-81
2022/08/22 04:02:35;;;;;;;2.25;2.05;;;;;;;21.93;79.74;98895.91;5108849;28;20023;-83
2022/08/22 04:05:34;;;;;;;2.67;2.47;;;;;;;21.83;80.06;98889.53;5107789;28;20039;-83
2022/08/22 04:08:30;;;;;;;1.80;1.48;;;;;;;21.88;79.43;98898.09;5073897;28;20075;-85
2022/08/22 04:11:11;;;;;;;2.70;2.03;;;;;;;21.82;78.11;98907.44;5105368;28;20050;-82
2022/08/22 04:14:15;;;;;;;2.40;2.00;;;;;;;21.62;76.31;98913.44;5105234;28;20043;-84
2022/08/22 04:17:05;;;;;;;1.92;1.75;;;;;;;21.67;75.17;98910.41;5108091;28;20031;-84
2022/08/22 04:19:47;;;;;;;1.35;1.25;;;;;;;21.56;75.78;98901.31;5087558;28;20089;-84
2022/08/22 04:22:32;;;;;;;2.55;2.35;;;;;;;21.69;74.90;98877.13;5106091;28;20502;-83
2022/08/22 04:25:03;;;;;;;1.60;1.10;;;;;;;21.73;75.07;98899.22;5104543;28;20027;-83
2022/08/22 04:27:36;;;;;;;1.48;1.38;;;;;;;21.72;76.04;98902.88;5107737;28;20701;-80
2022/08/22 04:30:30;;;;;;;10.65;2.25;;;;;;;21.71;76.21;98906.53;5107506;28;20164;-81
2022/08/22 04:33:09;;;;;;;2.28;2.08;;;;;;;21.69;77.05;98903.97;5108234;28;20036;-81
2022/08/22 04:35:43;;;;;;;2.50;1.67;;;;;;;21.42;78.20;98896.06;5107836;28;20043;-81
2022/08/22 04:38:21;;;;;;;1.88;1.55;;;;;;;21.57;78.53;98910.25;5106328;28;20031;-79
2022/08/22 04:40:54;;;;;;;2.83;2.60;;;;;;;21.57;79.14;98908.41;5087351;28;20049;-80
2022/08/22 04:43:47;;;;;;;4.20;3.08;;;;;;;21.40;79.29;98895.34;5087620;28;20036;-81
2022/08/22 04:46:35;;;;;;;4.05;1.67;;;;;;;21.74;79.34;98919.72;5087669;28;20101;-83
2022/08/22 04:49:13;;;;;;;3.80;3.08;;;;;;;22.03;78.19;98897.91;5101739;28;20034;-80
2022/08/22 04:51:56;;;;;;;3.35;2.10;;;;;;;22.17;77.39;98898.59;5107996;28;20027;-80
2022/08/22 04:55:00;;;;;;;3.78;2.65;;;;;;;22.51;76.04;98919.38;5107546;28;20260;-81
2022/08/22 04:57:44;;;;;;;2.50;1.75;;;;;;;22.64;75.27;98912.06;5106224;28;20513;-80
2022/08/22 05:00:10;;;;;;;4.83;4.13;;;;;;;22.64;75.20;98898.63;5107092;28;20031;-81
2022/08/22 05:02:41;;;;;;;2.40;2.20;;;;;;;22.66;74.32;98885.94;5107039;28;20277;-81
2022/08/22 05:05:18;;;;;;;4.03;2.75;;;;;;;22.98;73.05;98920.19;5104771;28;20040;-79
2022/08/22 05:07:56;;;;;;;2.75;2.55;;;;;;;22.84;72.32;98866.66;5091269;28;20521;-80
2022/08/22 05:10:33;;;;;;;2.55;2.20;;;;;;;23.38;71.46;98918.88;5105912;28;20090;-80
2022/08/22 05:13:06;;;;;;;1.35;1.13;;;;;;;23.60;71.30;98918.00;5106035;28;20731;-83
2022/08/22 05:15:40;;;;;;;2.83;2.35;;;;;;;23.88;70.48;98942.69;5106426;28;20504;-80
2022/08/22 05:18:16;;;;;;;7.10;3.47;;;;;;;23.92;69.20;98926.16;5086632;28;20101;-81
2022/08/22 05:20:46;;;;;;;2.70;1.67;;;;;;;24.25;68.30;98947.72;5094710;28;20564;-82
2022/08/22 05:23:29;;;;;;;3.20;2.45;;;;;;;24.28;68.00;98959.13;5105382;28;20035;-80
2022/08/22 05:26:01;;;;;;;3.47;2.00;;;;;;;24.02;67.81;98917.31;5106968;28;20031;-79
2022/08/22 05:28:32;;;;;;;4.13;2.72;;;;;;;24.47;67.26;98957.56;5105160;28;20023;-82
2022/08/22 05:31:01;;;;;;;4.75;2.75;;;;;;;24.49;66.53;98952.91;5106230;28;20053;-83
2022/08/22 05:33:37;;;;;;;5.55;2.83;;;;;;;24.48;66.08;98943.09;5106589;28;20081;-83
2022/08/22 05:36:27;;;;;;;1.77;1.55;;;;;;;24.45;65.77;98946.91;5104919;28;20027;-82
2022/08/22 05:39:01;;;;;;;2.60;2.20;;;;;;;24.63;65.54;98954.44;5089967;28;20028;-81
2022/08/22 05:41:31;;;;;;;3.08;2.75;;;;;;;24.67;64.61;98948.66;5086168;28;20032;-82
2022/08/22 05:43:58;;;;;;;1.20;0.98;;;;;;;24.90;65.12;98961.16;5086051;28;20113;-83
2022/08/22 05:46:40;;;;;;;2.25;1.67;;;;;;;24.97;65.62;98957.78;5084439;28;20043;-82
2022/08/22 05:49:27;;;;;;;3.92;2.35;;;;;;;24.88;65.60;98936.16;5089705;28;20028;-81
2022/08/22 05:52:02;;;;;;;3.72;2.60;;;;;;;25.27;63.80;98971.44;5096376;28;20040;-81
2022/08/22 05:54:35;;;;;;;5.00;2.47;;;;;;;25.16;63.84;98953.50;5088226;28;20038;-82
2022/08/22 05:57:27;;;;;;;6.15;3.55;;;;;;;25.32;63.72;98974.66;5105829;28;20043;-82
2022/08/22 06:00:01;;;;;;;2.50;2.30;;;;;;;25.45;63.06;98967.16;5098568;28;20055;-83
2022/08/22 06:03:09;;;;;;;2.33;1.98;;;;;;;25.71;61.43;98972.09;5106849;28;20089;-81
2022/08/22 06:05:41;;;;;;;1.95;1.52;;;;;;;26.05;60.04;98978.03;5085832;28;20043;-81
2022/08/22 06:08:16;;;;;;;5.65;3.85;;;;;;;26.04;59.69;98970.06;5094975;28;20458;-81
2022/08/22 06:10:49;;;;;;;2.10;1.85;;;;;;;25.99;59.37;98919.16;5101679;28;20046;-82
2022/08/22 06:13:25;;;;;;;5.82;3.60;;;;;;;26.35;59.13;98962.69;5110605;28;20028;-81
2022/08/22 06:16:10;;;;;;;18.75;2.25;;;;;;;26.41;57.33;98958.56;5109168;28;20023;-81
2022/08/22 06:18:39;;;;;;;3.42;3.13;;;;;;;25.87;59.43;98958.94;5109254;28;20858;-81
2022/08/22 06:21:12;;;;;;;4.47;3.33;;;;;;;26.44;59.17;98955.59;5108465;28;20083;-81
2022/08/22 06:23:59;;;;;;;4.55;3.03;;;;;;;27.19;57.53;98974.75;5092196;27;20044;-81
2022/08/22 06:26:30;;;;;;;2.75;2.40;;;;;;;27.55;54.46;98944.28;5090304;28;20027;-83
2022/08/22 06:28:59;;;;;;;2.15;1.95;;;;;;;27.61;54.16;98958.06;5090212;28;20024;-82
2022/08/22 06:31:47;;;;;;;2.67;2.25;;;;;;;27.52;57.05;98948.13;5090002;28;20028;-81
2022/08/22 06:34:22;;;;;;;2.75;2.30;;;;;;;27.98;54.91;98969.88;5089731;28;20529;-81
2022/08/22 06:36:50;;;;;;;4.53;3.33;;;;;;;27.92;54.55;98940.66;5090016;28;20032;-82
2022/08/22 06:39:18;;;;;;;3.85;3.10;;;;;;;28.33;51.77;98982.63;5088588;28;20687;-81
2022/08/22 06:42:02;;;;;;;2.42;2.08;;;;;;;27.65;51.89;98964.91;5089884;28;20028;-81
2022/08/22 06:44:33;;;;;;;3.28;2.28;;;;;;;27.65;55.79;98970.31;5089692;28;20034;-82
2022/08/22 06:47:02;;;;;;;2.05;1.73;;;;;;;27.78;53.24;98966.41;5089708;28;20398;-82
2022/08/22 06:49:31;;;;;;;1.73;1.20;;;;;;;26.88;54.45;98979.47;5089522;28;20036;-83
2022/08/22 06:52:04;;;;;;;1.65;1.52;;;;;;;27.00;54.19;98982.91;5089831;28;20036;-81
2022/08/22 06:54:33;;;;;;;1.83;1.60;;;;;;;27.03;54.78;98942.84;5089673;28;20035;-82
2022/08/22 06:57:01;;;;;;;2.50;1.88;;;;;;;27.36;54.23;98969.56;5090269;28;20046;-81
2022/08/22 06:59:29;;;;;;;2.95;2.65;;;;;;;26.48;54.30;98959.72;5089775;28;20069;-82
2022/08/22 07:02:02;;;;;;;3.85;2.70;;;;;;;26.43;55.45;98938.53;5089715;28;20381;-81
2022/08/22 07:04:27;;;;;;;1.98;1.42;;;;;;;26.74;55.55;98980.78;5089619;28;20043;-83
2022/08/22 07:06:55;;;;;;;2.40;1.77;;;;;;;27.04;54.95;98946.44;5089249;28;20032;-81
2022/08/22 07:09:36;;;;;;;1.88;1.58;;;;;;;27.49;54.73;98965.53;5089113;28;20545;-84
2022/08/22 07:12:25;;;;;;;8.80;2.63;;;;;;;27.78;53.78;98994.34;5089555;28;20205;-80
2022/08/22 07:14:57;;;;;;;2.20;2.00;;;;;;;27.43;57.67;98962.56;5089178;28;20027;-80
2022/08/22 07:17:25;;;;;;;3.15;2.47;;;;;;;27.90;55.68;98956.19;5089037;28;20038;-80
2022/08/22 07:20:02;;;;;;;3.45;2.33;;;;;;;28.22;54.59;98974.69;5089124;28;20034;-81
2022/08/22 07:22:31;;;;;;;2.40;1.45;;;;;;;28.12;51.11;98974.78;5088963;28;20106;-82
2022/08/22 07:25:09;;;;;;;2.42;2.00;;;;;;;28.34;52.79;98976.19;5088418;28;20421;-79
2022/08/22 07:28:12;;;;;;;4.88;2.70;;;;;;;28.02;50.96;98982.97;5089195;28;20119;-80
2022/08/22 07:31:03;;;;;;;3.00;2.25;;;;;;;27.67;54.41;98984.56;5088579;28;20444;-80
2022/08/22 07:33:52;;;;;;;4.20;2.67;;;;;;;27.83;53.61;98986.59;5088678;28;20048;-82
2022/08/22 07:36:21;;;;;;;3.35;3.05;;;;;;;28.54;50.60;98984.16;5088772;28;20024;-80
2022/08/22 07:39:02;;;;;;;2.88;2.35;;;;;;;28.74;50.33;98949.59;5088428;28;20530;-81
2022/08/22 07:41:51;;;;;;;2.15;1.70;;;;;;;29.37;46.91;98964.81;5088576;28;20611;-81
2022/08/22 07:44:22;;;;;;;2.90;2.05;;;;;;;29.17;48.09;98928.00;5088370;28;20031;-81
2022/08/22 07:47:07;;;;;;;1.38;1.13;;;;;;;29.18;47.75;98971.31;5088877;28;20036;-81
2022/08/22 07:49:40;;;;;;;3.17;2.70;;;;;;;28.88;48.92;98961.75;5088809;28;20034;-81
2022/08/22 07:52:10;;;;;;;3.20;1.90;;;;;;;28.93;48.49;98956.69;5088264;28;20043;-83
2022/08/22 07:54:47;;;;;;;2.60;1.77;;;;;;;29.67;46.31;98964.44;5088287;28;20028;-82
2022/08/22 07:57:20;;;;;;;1.38;1.13;;;;;;;29.92;48.34;98976.28;5088318;28;20028;-82
2022/08/22 07:59:51;;;;;;;3.05;1.88;;;;;;;29.89;47.91;98957.56;5088774;28;20080;-82
2022/08/22 08:02:18;;;;;;;12.52;2.75;;;;;;;29.93;47.39;98978.81;5088233;28;20032;-84
2022/08/22 08:04:47;;;;;;;1.58;1.35;;;;;;;30.16;46.41;98953.75;5088087;28;20559;-83
2022/08/22 08:07:16;;;;;;;1.33;1.20;;;;;;;30.15;46.33;98971.06;5088013;28;20066;-85
2022/08/22 08:09:49;;;;;;;3.20;2.58;;;;;;;28.93;48.63;98932.25;5088007;28;20040;-84
2022/08/22 08:12:17;;;;;;;6.03;3.25;;;;;;;29.23;49.37;98927.41;5087977;28;20114;-83
2022/08/22 08:14:45;;;;;;;4.93;3.38;;;;;;;29.85;49.16;98975.25;5087975;28;20057;-81
2022/08/22 08:17:22;;;;;;;4.18;2.92;;;;;;;29.67;49.37;98976.16;5087777;28;20169;-82
2022/08/22 08:19:49;;;;;;;3.63;3.05;;;;;;;29.91;48.64;98969.16;5087507;28;20035;-80
2022/08/22 08:22:20;;;;;;;8.30;5.25;;;;;;;29.68;46.79;98942.53;5087965;28;20118;-82
2022/08/22 08:24:48;;;;;;;4.72;3.10;;;;;;;29.52;47.99;98951.47;5087715;28;20051;-82
2022/08/22 08:30:43;;;;;;;3.78;3.15;;;;;;;29.56;49.41;98954.72;5087353;28;20050;-82
2022/08/22 08:33:17;;;;;;;5.65;4.47;;;;;;;29.85;47.69;98956.22;5087229;28;20565;-82
2022/08/22 08:35:50;;;;;;;4.72;2.85;;;;;;;29.98;47.39;98968.34;5087482;28;20032;-82
2022/08/22 08:38:20;;;;;;;2.58;2.08;;;;;;;29.80;48.32;98959.44;5087362;28;20028;-81
2022/08/22 08:41:21;;;;;;;8.80;4.78;;;;;;;30.10;50.37;98951.69;5087557;28;20058;-81
2022/08/22 08:43:57;;;;;;;4.25;3.55;;;;;;;30.24;46.44;98948.31;5087614;28;20028;-81
2022/08/22 08:46:51;;;;;;;6.78;3.78;;;;;;;30.34;47.46;98951.75;5087859;28;20054;-83
2022/08/22 08:49:33;;;;;;;5.40;3.95;;;;;;;30.43;46.03;98955.34;5087277;28;20031;-82
2022/08/22 08:52:08;;;;;;;4.50;3.30;;;;;;;29.95;47.52;98960.50;5087549;28;20038;-81
2022/08/22 08:54:58;;;;;;;5.90;4.15;;;;;;;29.88;46.97;98953.19;5087383;28;20063;-81
2022/08/22 08:57:36;;;;;;;4.57;4.10;;;;;;;30.18;46.62;98960.72;5087571;28;20531;-81
2022/08/22 09:00:05;;;;;;;3.47;2.92;;;;;;;30.51;47.25;98951.78;5087418;28;20032;-82
2022/08/22 09:02:44;;;;;;;7.97;5.82;;;;;;;30.48;49.35;98966.56;5086890;28;20483;-83
2022/08/22 09:05:36;;;;;;;9.20;5.70;;;;;;;31.49;46.47;98941.78;5086999;28;20044;-83
2022/08/22 09:08:17;;;;;;;6.68;5.72;;;;;;;31.61;43.80;98940.41;5056170;28;20044;-81
2022/08/22 09:11:05;;;;;;;6.65;5.43;;;;;;;31.31;42.63;98882.94;5105409;28;20043;-83
2022/08/22 09:14:03;;;;;;;10.25;5.88;;;;;;;31.89;43.53;98929.84;5102721;28;20023;-82
2022/08/22 09:16:57;;;;;;;7.05;4.82;;;;;;;31.53;44.53;98927.63;5084876;28;20047;-84
2022/08/22 09:20:01;;;;;;;6.65;5.03;;;;;;;31.44;44.26;98922.41;5107835;28;20039;-83
2022/08/22 09:22:52;;;;;;;9.98;4.30;;;;;;;31.34;45.38;98925.31;5080880;28;20126;-82
2022/08/22 09:25:32;;;;;;;7.28;4.55;;;;;;;31.74;43.10;98888.03;5104947;28;20031;-82
2022/08/22 09:28:01;;;;;;;5.32;3.92;;;;;;;32.13;43.97;98914.41;5104902;28;20035;-81
2022/08/22 09:30:48;;;;;;;4.55;3.78;;;;;;;31.64;44.46;98879.22;5098248;28;20100;-80
2022/08/22 09:33:20;;;;;;;8.05;5.07;;;;;;;31.99;42.47;98913.25;5105201;28;20035;-81
2022/08/22 09:36:22;;;;;;;7.32;5.13;;;;;;;31.46;43.27;98910.28;5106969;28;20059;-88
2022/08/22 09:39:17;;;;;;;9.35;5.20;;;;;;;31.27;43.46;98922.44;5104931;28;20494;-84
2022/08/22 09:42:12;;;;;;;11.35;7.22;;;;;;;31.71;42.72;98910.19;5103848;28;20520;-86
2022/08/22 09:44:47;;;;;;;9.18;6.15;;;;;;;31.36;43.30;98912.38;5106727;28;20034;-85
2022/08/22 09:47:29;;;;;;;6.88;4.50;;;;;;;31.82;43.00;98907.06;5111271;27;20065;-85
2022/08/22 09:50:04;;;;;;;5.95;4.32;;;;;;;31.38;43.46;98902.16;5110912;28;20088;-84
2022/08/22 09:53:00;;;;;;;6.20;4.55;;;;;;;31.00;43.64;98869.25;5110874;28;20509;-83
2022/08/22 09:55:44;;;;;;;6.03;4.35;;;;;;;31.15;43.96;98896.59;5110246;28;20031;-83
2022/08/22 09:58:22;;;;;;;4.93;3.03;;;;;;;31.17;45.18;98900.00;5109243;28;20390;-83
2022/08/22 10:00:50;;;;;;;5.82;3.10;;;;;;;31.26;44.63;98889.94;5110196;28;20039;-84
2022/08/22 10:03:31;;;;;;;9.02;4.97;;;;;;;31.45;44.89;98869.59;5110178;28;20032;-84
2022/08/22 10:06:11;;;;;;;5.63;4.05;;;;;;;30.87;45.07;98900.56;5110076;28;20024;-85
2022/08/22 10:08:47;;;;;;;4.50;2.83;;;;;;;30.95;44.40;98885.22;5110204;28;20024;-85
2022/08/22 10:11:12;;;;;;;4.97;4.03;;;;;;;31.41;45.17;98880.00;5109890;27;20118;-84
2022/08/22 10:13:48;;;;;;;6.65;4.90;;;;;;;31.64;44.02;98857.41;5110006;28;20142;-84
2022/08/22 10:16:23;;;;;;;6.47;4.10;;;;;;;30.97;44.54;98856.84;5110228;28;20031;-83
2022/08/22 10:18:52;;;;;;;2.83;2.35;;;;;;;31.30;43.82;98883.13;5110733;28;20566;-86
2022/08/22 10:21:36;;;;;;;12.38;4.25;;;;;;;30.99;43.58;98873.00;5109354;28;20409;-85
2022/08/22 10:24:22;;;;;;;6.03;3.92;;;;;;;30.59;45.14;98875.59;5110344;28;20065;-82
2022/08/22 10:26:52;;;;;;;3.17;2.28;;;;;;;30.07;46.06;98837.84;5110671;28;20779;-84
2022/08/22 10:29:38;;;;;;;3.03;2.47;;;;;;;30.46;45.38;98886.13;5110167;28;20038;-85
2022/08/22 10:33:00;;;;;;;8.52;2.45;;;;;;;30.67;44.10;98877.47;5109053;28;20428;-85
2022/08/22 10:35:37;;;;;;;3.05;1.77;;;;;;;30.74;44.16;98850.38;5036980;28;20047;-84
2022/08/22 10:38:15;;;;;;;4.63;2.88;;;;;;;30.13;45.56;98834.44;5110498;28;20032;-84
2022/08/22 10:41:02;;;;;;;4.88;3.17;;;;;;;30.01;45.75;98839.34;5110009;28;20061;-86
2022/08/22 10:43:48;;;;;;;5.95;4.47;;;;;;;30.45;45.75;98854.53;5109856;28;20027;-85
2022/08/22 10:46:25;;;;;;;5.93;3.90;;;;;;;30.43;45.94;98865.59;5110130;28;20020;-86
2022/08/22 10:48:59;;;;;;;5.47;3.45;;;;;;;30.62;45.18;98839.88;5110383;28;20032;-86
2022/08/22 10:51:50;;;;;;;3.60;3.05;;;;;;;30.33;44.97;98829.50;5110016;28;20036;-85
2022/08/22 10:54:43;;;;;;;9.40;3.53;;;;;;;30.76;45.11;98865.53;5108754;28;20028;-85
2022/08/22 10:57:12;;;;;;;4.47;2.65;;;;;;;30.97;44.87;98866.84;5109707;28;20051;-85
2022/08/22 10:59:44;;;;;;;3.90;3.00;;;;;;;30.92;46.12;98870.09;5109632;28;20122;-85
2022/08/22 11:02:13;;;;;;;4.15;2.42;;;;;;;30.89;44.62;98865.84;5109669;28;20569;-85
2022/08/22 11:04:44;;;;;;;5.45;3.25;;;;;;;30.88;44.78;98871.47;5109781;28;20039;-87
2022/08/22 11:07:39;;;;;;;3.40;3.08;;;;;;;30.89;44.48;98871.31;5109746;28;20024;-86
2022/08/22 11:10:20;;;;;;;3.53;2.85;;;;;;;31.00;43.95;98842.00;5106518;28;20047;-86
2022/08/22 11:13:05;;;;;;;3.85;3.00;;;;;;;31.11;43.61;98840.78;5108088;28;20031;-85
2022/08/22 11:15:55;;;;;;;2.05;1.65;;;;;;;31.16;44.53;98863.75;5110014;28;20042;-85
2022/08/22 11:18:47;;;;;;;3.08;2.28;;;;;;;31.07;45.04;98856.63;5109872;28;20039;-85
2022/08/22 11:21:51;;;;;;;3.25;2.28;;;;;;;31.26;43.99;98849.91;5079918;28;20171;-84
2022/08/22 11:24:54;;;;;;;1.80;1.58;;;;;;;31.34;43.44;98844.44;5107335;28;20047;-85
2022/08/22 11:27:38;;;;;;;3.30;2.33;;;;;;;31.32;43.66;98846.47;5109215;28;20055;-86
2022/08/22 11:30:29;;;;;;;2.97;2.22;;;;;;;30.93;45.01;98838.28;5108013;28;20493;-87
2022/08/22 11:32:58;;;;;;;6.70;3.78;;;;;;;31.15;45.02;98836.69;5109290;28;20023;-87
2022/08/22 11:35:43;;;;;;;2.63;1.95;;;;;;;31.04;43.24;98829.75;5108903;28;20055;-85
2022/08/22 11:38:18;;;;;;;4.10;3.03;;;;;;;30.98;44.61;98833.19;5109210;28;20039;-85
2022/08/22 11:41:08;;;;;;;2.40;1.92;;;;;;;31.18;44.03;98809.09;5108930;28;20031;-85
2022/08/22 11:43:39;;;;;;;2.92;2.38;;;;;;;31.41;42.79;98836.41;5108872;28;20072;-84
2022/08/22 11:46:28;;;;;;;3.95;2.40;;;;;;;31.45;46.25;98824.13;5107534;28;20849;-83
2022/08/22 11:48:58;;;;;;;2.92;2.35;;;;;;;31.75;43.45;98827.03;5109073;28;20047;-84
2022/08/22 11:51:59;;;;;;;3.53;2.70;;;;;;;31.51;44.46;98831.59;5091403;28;20104;-85
2022/08/22 11:54:49;;;;;;;3.88;2.92;;;;;;;31.24;46.75;98811.97;5089145;28;20516;-86
2022/08/22 11:57:38;;;;;;;2.85;2.45;;;;;;;31.32;44.57;98827.41;5088481;28;20031;-86
2022/08/22 12:00:18;;;;;;;3.75;2.67;;;;;;;30.94;47.52;98819.06;5080505;28;20040;-88
2022/08/22 12:03:15;;;;;;;5.00;3.15;;;;;;;30.74;48.30;98823.16;5086731;28;20032;-84
2022/08/22 12:06:00;;;;;;;4.35;3.15;;;;;;;30.08;46.81;98775.13;5088868;28;20549;-86
2022/08/22 12:08:28;;;;;;;4.43;3.42;;;;;;;30.33;49.19;98819.47;5087982;28;20032;-87
2022/08/22 12:11:04;;;;;;;7.93;3.15;;;;;;;30.20;48.18;98812.84;5088436;28;20024;-85
2022/08/22 12:13:39;;;;;;;3.70;2.78;;;;;;;30.28;48.04;98813.69;5088608;28;20028;-85
2022/08/22 12:16:17;;;;;;;4.63;3.05;;;;;;;29.98;49.97;98785.31;5088382;28;20035;-87
2022/08/22 12:19:11;;;;;;;4.03;2.88;;;;;;;30.36;50.26;98837.31;5086782;28;20035;-86
2022/08/22 12:21:56;;;;;;;5.97;3.45;;;;;;;30.08;49.02;98842.28;5088547;28;20032;-87
2022/08/22 12:24:32;;;;;;;6.10;4.28;;;;;;;29.33;51.61;98815.94;5088106;28;20040;-87
2022/08/22 12:27:22;;;;;;;5.72;3.90;;;;;;;29.42;54.04;98845.66;5088221;28;20040;-86
2022/08/22 12:29:53;;;;;;;8.45;4.53;;;;;;;29.24;53.88;98834.03;5087719;28;20456;-85
2022/08/22 12:32:40;;;;;;;6.82;4.28;;;;;;;29.07;54.09;98836.69;5087643;28;20108;-85
2022/08/22 12:35:14;;;;;;;4.80;2.90;;;;;;;29.06;53.79;98845.81;5087665;28;20055;-86
2022/08/22 12:37:51;;;;;;;5.80;4.30;;;;;;;28.70;54.42;98791.72;5088044;28;20429;-85
2022/08/22 12:40:40;;;;;;;6.32;4.78;;;;;;;28.75;55.27;98843.63;5087771;28;20089;-85
2022/08/22 12:43:12;;;;;;;6.07;3.42;;;;;;;28.58;56.29;98804.69;5087590;28;20039;-85
2022/08/22 12:45:40;;;;;;;4.82;3.55;;;;;;;28.47;55.46;98823.06;5086485;28;20036;-84
2022/08/22 12:48:47;;;;;;;6.22;4.20;;;;;;;28.62;55.30;98828.78;5087321;28;20066;-85
2022/08/22 12:51:29;;;;;;;6.93;5.18;;;;;;;28.53;56.82;98817.88;5062932;28;20062;-86
2022/08/22 12:54:23;;;;;;;7.35;4.93;;;;;;;28.80;57.35;98820.59;5087096;28;20398;-86
2022/08/22 12:56:51;;;;;;;3.63;3.03;;;;;;;28.74;54.86;98822.91;5087385;28;20024;-86